Bangor, ME

4:34 AM EDT on August 26, 2016 (GMT -0400)
Essex St Hill | | Change Station

Elev 208 ft 44.82 °N, 68.77 °W | Updated 11 seconds ago

Mostly Cloudy
Mostly Cloudy
67.1 °F
Feels Like 67.1 °F
N
0.0
Wind Variable Wind from WSW
Gusts 3.0 mph

Today
High -- | Low -- °F
--% Chance of Precip.
Yesterday
High -- | Low -- °F
Precip. -- in
Pressure 29.89 in
Visibility 10.0 miles
Clouds Mostly Cloudy 9000 ft
Dew Point 63 °F
Humidity 88%
Rainfall 0.00 in
Snow Depth Not available.
5:50 AM 7:22 PM
Last Quarter, 37% visible
METAR KBGR 260753Z 20005KT 10SM BKN090 19/18 A2989 RMK AO2 SLP120 T01940178
Pressure 29.89 in
Visibility 10.0 miles
Clouds Mostly Cloudy 9000 ft
Dew Point 63 °F
Humidity 88%
Rainfall 0.00 in
Snow Depth Not available.
5:50 AM 7:22 PM
Last Quarter, 37% visible
METAR KBGR 260753Z 20005KT 10SM BKN090 19/18 A2989 RMK AO2 SLP120 T01940178

10-Day Weather Forecast

Almanac

Astronomy

Aug. 26, 2016 Rise Set
Actual Time
Civil Twilight
Nautical Twilight
Astronomical Twilight
Moon
Length of Visible Light
Length of Day
Tomorrow will be .
, % of the Moon is Illuminated

Today's Extremes

State Highs State Lows

Community

WunderPhotos

Upload Photos

1,935,062 photos uploaded!

WunderBlog® & News

Nearby

Air Quality

  Air Quality AQ Index Pollutant
Not available.

Snow Depth

Station Depth Elevation

Earthquake Activity

City Distance Mag. Time & Date
Minimum magnitude displayed is 2.5.

Coastal Water Temperatures

Place Temperature

Stations

Nearby Weather Stations

Station Location Temp. Windchill Dew Point Humidity Wind Precip. Elev Updated Type
                   

Watches & Warnings

There are currently no watches in effect.